sensor_id;sensor_type;location;lat;lon;timestamp;temperature;humidity
61392;DHT22;47261;52.892;5.738;2023-06-22T00:00:51;17.90;98.80
61392;DHT22;47261;52.892;5.738;2023-06-22T00:03:19;17.90;98.90
61392;DHT22;47261;52.892;5.738;2023-06-22T00:05:45;17.90;99.10
61392;DHT22;47261;52.892;5.738;2023-06-22T00:08:11;17.90;99.10
61392;DHT22;47261;52.892;5.738;2023-06-22T00:10:37;17.80;98.90
61392;DHT22;47261;52.892;5.738;2023-06-22T00:13:03;17.80;98.90
61392;DHT22;47261;52.892;5.738;2023-06-22T00:15:29;17.80;99.00
61392;DHT22;47261;52.892;5.738;2023-06-22T00:17:54;17.80;98.90
61392;DHT22;47261;52.892;5.738;2023-06-22T00:20:22;17.70;98.90
61392;DHT22;47261;52.892;5.738;2023-06-22T00:22:48;17.70;99.00
61392;DHT22;47261;52.892;5.738;2023-06-22T00:25:13;17.70;99.10
61392;DHT22;47261;52.892;5.738;2023-06-22T00:27:39;17.70;99.30
61392;DHT22;47261;52.892;5.738;2023-06-22T00:30:05;17.70;99.20
61392;DHT22;47261;52.892;5.738;2023-06-22T00:32:31;17.60;99.10
61392;DHT22;47261;52.892;5.738;2023-06-22T00:34:57;17.60;99.10
61392;DHT22;47261;52.892;5.738;2023-06-22T00:37:22;17.60;99.40
61392;DHT22;47261;52.892;5.738;2023-06-22T00:39:51;17.60;99.70
61392;DHT22;47261;52.892;5.738;2023-06-22T00:42:17;17.70;99.90
61392;DHT22;47261;52.892;5.738;2023-06-22T00:44:43;17.80;99.90
61392;DHT22;47261;52.892;5.738;2023-06-22T00:47:09;17.80;99.90
61392;DHT22;47261;52.892;5.738;2023-06-22T00:49:35;17.80;99.90
61392;DHT22;47261;52.892;5.738;2023-06-22T00:52:01;17.90;99.90
61392;DHT22;47261;52.892;5.738;2023-06-22T00:54:27;17.90;99.90
61392;DHT22;47261;52.892;5.738;2023-06-22T00:56:54;17.90;99.90
61392;DHT22;47261;52.892;5.738;2023-06-22T00:59:22;17.90;99.90
61392;DHT22;47261;52.892;5.738;2023-06-22T01:01:48;17.90;99.90
61392;DHT22;47261;52.892;5.738;2023-06-22T01:04:14;17.90;99.90
61392;DHT22;47261;52.892;5.738;2023-06-22T01:07:00;17.80;99.80
61392;DHT22;47261;52.892;5.738;2023-06-22T01:09:33;17.70;99.60
61392;DHT22;47261;52.892;5.738;2023-06-22T01:12:04;17.60;99.70
61392;DHT22;47261;52.892;5.738;2023-06-22T01:14:50;17.60;99.90
61392;DHT22;47261;52.892;5.738;2023-06-22T01:17:19;17.60;99.90
61392;DHT22;47261;52.892;5.738;2023-06-22T01:19:48;17.50;99.90
61392;DHT22;47261;52.892;5.738;2023-06-22T01:22:24;17.50;99.80
61392;DHT22;47261;52.892;5.738;2023-06-22T01:30:28;17.20;99.00
61392;DHT22;47261;52.892;5.738;2023-06-22T01:32:57;17.10;99.00
61392;DHT22;47261;52.892;5.738;2023-06-22T01:35:24;17.00;98.90
61392;DHT22;47261;52.892;5.738;2023-06-22T01:37:50;16.90;98.80
61392;DHT22;47261;52.892;5.738;2023-06-22T01:40:16;16.70;98.70
61392;DHT22;47261;52.892;5.738;2023-06-22T01:42:43;16.60;98.70
61392;DHT22;47261;52.892;5.738;2023-06-22T01:45:10;16.50;99.00
61392;DHT22;47261;52.892;5.738;2023-06-22T01:47:36;16.40;98.80
61392;DHT22;47261;52.892;5.738;2023-06-22T01:50:03;16.30;98.80
61392;DHT22;47261;52.892;5.738;2023-06-22T01:52:29;16.20;98.80
61392;DHT22;47261;52.892;5.738;2023-06-22T01:54:54;16.10;98.80
61392;DHT22;47261;52.892;5.738;2023-06-22T01:57:20;16.10;99.00
61392;DHT22;47261;52.892;5.738;2023-06-22T02:03:08;16.00;99.20
61392;DHT22;47261;52.892;5.738;2023-06-22T02:05:39;15.90;99.30
61392;DHT22;47261;52.892;5.738;2023-06-22T02:08:16;15.90;99.20
61392;DHT22;47261;52.892;5.738;2023-06-22T02:10:44;16.00;99.40
61392;DHT22;47261;52.892;5.738;2023-06-22T02:13:11;15.90;99.40
61392;DHT22;47261;52.892;5.738;2023-06-22T02:15:38;15.90;99.40
61392;DHT22;47261;52.892;5.738;2023-06-22T02:18:04;15.80;99.40
61392;DHT22;47261;52.892;5.738;2023-06-22T02:20:30;15.80;99.40
61392;DHT22;47261;52.892;5.738;2023-06-22T02:22:56;15.80;99.50
61392;DHT22;47261;52.892;5.738;2023-06-22T02:25:21;15.80;99.60
61392;DHT22;47261;52.892;5.738;2023-06-22T02:27:47;15.70;99.60
61392;DHT22;47261;52.892;5.738;2023-06-22T02:30:13;15.70;99.50
61392;DHT22;47261;52.892;5.738;2023-06-22T02:32:42;15.60;99.60
61392;DHT22;47261;52.892;5.738;2023-06-22T02:35:08;15.70;99.90
61392;DHT22;47261;52.892;5.738;2023-06-22T02:37:36;15.70;99.90
61392;DHT22;47261;52.892;5.738;2023-06-22T02:40:08;15.70;99.90
61392;DHT22;47261;52.892;5.738;2023-06-22T02:42:35;15.80;99.90
61392;DHT22;47261;52.892;5.738;2023-06-22T02:45:01;15.80;99.90
61392;DHT22;47261;52.892;5.738;2023-06-22T02:47:26;15.90;99.90
61392;DHT22;47261;52.892;5.738;2023-06-22T02:49:52;15.90;99.90
61392;DHT22;47261;52.892;5.738;2023-06-22T02:52:18;15.90;99.90
61392;DHT22;47261;52.892;5.738;2023-06-22T02:54:43;16.00;99.90
61392;DHT22;47261;52.892;5.738;2023-06-22T02:57:11;16.10;99.90
61392;DHT22;47261;52.892;5.738;2023-06-22T02:59:42;16.10;99.90
61392;DHT22;47261;52.892;5.738;2023-06-22T03:02:08;16.20;99.90
61392;DHT22;47261;52.892;5.738;2023-06-22T03:04:35;16.30;99.90
61392;DHT22;47261;52.892;5.738;2023-06-22T03:07:01;16.40;99.90
61392;DHT22;47261;52.892;5.738;2023-06-22T03:09:30;16.40;99.90
61392;DHT22;47261;52.892;5.738;2023-06-22T03:11:56;16.40;99.90
61392;DHT22;47261;52.892;5.738;2023-06-22T03:14:21;16.50;99.90
61392;DHT22;47261;52.892;5.738;2023-06-22T03:16:47;16.50;99.90
61392;DHT22;47261;52.892;5.738;2023-06-22T03:19:13;16.50;99.90
61392;DHT22;47261;52.892;5.738;2023-06-22T03:21:39;16.60;99.90
61392;DHT22;47261;52.892;5.738;2023-06-22T03:24:07;16.60;99.90
61392;DHT22;47261;52.892;5.738;2023-06-22T03:26:34;16.60;99.90
61392;DHT22;47261;52.892;5.738;2023-06-22T03:29:00;16.60;99.90
61392;DHT22;47261;52.892;5.738;2023-06-22T03:31:25;16.60;99.90
61392;DHT22;47261;52.892;5.738;2023-06-22T03:33:51;16.60;99.90
61392;DHT22;47261;52.892;5.738;2023-06-22T03:36:17;16.60;99.90
61392;DHT22;47261;52.892;5.738;2023-06-22T03:38:47;16.60;99.90
61392;DHT22;47261;52.892;5.738;2023-06-22T03:41:13;16.60;99.90
61392;DHT22;47261;52.892;5.738;2023-06-22T03:43:39;16.60;99.90
61392;DHT22;47261;52.892;5.738;2023-06-22T03:46:05;16.60;99.90
61392;DHT22;47261;52.892;5.738;2023-06-22T03:48:30;16.60;99.90
61392;DHT22;47261;52.892;5.738;2023-06-22T03:50:56;16.60;99.90
61392;DHT22;47261;52.892;5.738;2023-06-22T03:53:22;16.60;99.90
61392;DHT22;47261;52.892;5.738;2023-06-22T03:55:49;16.60;99.90
61392;DHT22;47261;52.892;5.738;2023-06-22T03:58:16;16.70;99.90
61392;DHT22;47261;52.892;5.738;2023-06-22T04:00:42;16.70;99.90
61392;DHT22;47261;52.892;5.738;2023-06-22T04:03:07;16.70;99.90
61392;DHT22;47261;52.892;5.738;2023-06-22T04:05:33;16.70;99.90
61392;DHT22;47261;52.892;5.738;2023-06-22T04:07:58;16.70;99.90
61392;DHT22;47261;52.892;5.738;2023-06-22T04:10:24;16.70;99.90
61392;DHT22;47261;52.892;5.738;2023-06-22T04:12:50;16.80;99.90
61392;DHT22;47261;52.892;5.738;2023-06-22T04:15:15;16.80;99.90
61392;DHT22;47261;52.892;5.738;2023-06-22T04:17:41;16.80;99.90
61392;DHT22;47261;52.892;5.738;2023-06-22T04:20:07;16.80;99.90
61392;DHT22;47261;52.892;5.738;2023-06-22T04:22:33;16.80;99.90
61392;DHT22;47261;52.892;5.738;2023-06-22T04:24:58;16.80;99.90
61392;DHT22;47261;52.892;5.738;2023-06-22T04:27:24;16.80;99.90
61392;DHT22;47261;52.892;5.738;2023-06-22T04:29:50;16.90;99.90
61392;DHT22;47261;52.892;5.738;2023-06-22T04:32:16;17.00;99.90
61392;DHT22;47261;52.892;5.738;2023-06-22T04:34:43;17.00;99.90
61392;DHT22;47261;52.892;5.738;2023-06-22T04:37:09;17.10;99.90
61392;DHT22;47261;52.892;5.738;2023-06-22T04:39:34;17.10;99.90
61392;DHT22;47261;52.892;5.738;2023-06-22T04:42:01;17.20;99.90
61392;DHT22;47261;52.892;5.738;2023-06-22T04:44:27;17.30;99.90
61392;DHT22;47261;52.892;5.738;2023-06-22T04:46:54;17.40;99.90
61392;DHT22;47261;52.892;5.738;2023-06-22T04:49:26;17.50;99.90
61392;DHT22;47261;52.892;5.738;2023-06-22T04:52:09;17.60;99.90
61392;DHT22;47261;52.892;5.738;2023-06-22T04:54:36;17.70;99.90
61392;DHT22;47261;52.892;5.738;2023-06-22T04:57:06;17.90;99.90
61392;DHT22;47261;52.892;5.738;2023-06-22T04:59:37;17.90;99.90
61392;DHT22;47261;52.892;5.738;2023-06-22T05:02:04;18.00;99.90
61392;DHT22;47261;52.892;5.738;2023-06-22T05:04:31;18.10;99.90
61392;DHT22;47261;52.892;5.738;2023-06-22T05:06:57;18.20;99.90
61392;DHT22;47261;52.892;5.738;2023-06-22T05:09:23;18.30;99.90
61392;DHT22;47261;52.892;5.738;2023-06-22T05:11:51;18.40;99.90
61392;DHT22;47261;52.892;5.738;2023-06-22T05:14:17;18.50;99.90
61392;DHT22;47261;52.892;5.738;2023-06-22T05:16:44;18.50;99.90
61392;DHT22;47261;52.892;5.738;2023-06-22T05:19:10;18.60;99.90
61392;DHT22;47261;52.892;5.738;2023-06-22T05:21:36;18.70;99.90
61392;DHT22;47261;52.892;5.738;2023-06-22T05:24:01;18.80;99.90
61392;DHT22;47261;52.892;5.738;2023-06-22T05:26:31;19.00;99.90
61392;DHT22;47261;52.892;5.738;2023-06-22T05:28:59;19.10;99.90
61392;DHT22;47261;52.892;5.738;2023-06-22T05:31:26;19.30;99.90
61392;DHT22;47261;52.892;5.738;2023-06-22T05:33:53;19.50;99.90
61392;DHT22;47261;52.892;5.738;2023-06-22T05:36:19;19.70;99.90
61392;DHT22;47261;52.892;5.738;2023-06-22T05:38:51;19.80;99.90
61392;DHT22;47261;52.892;5.738;2023-06-22T05:41:16;20.00;99.90
61392;DHT22;47261;52.892;5.738;2023-06-22T05:43:42;20.10;99.90
61392;DHT22;47261;52.892;5.738;2023-06-22T05:46:08;20.30;99.90
61392;DHT22;47261;52.892;5.738;2023-06-22T05:48:33;20.40;99.90
61392;DHT22;47261;52.892;5.738;2023-06-22T05:50:59;20.70;99.90
61392;DHT22;47261;52.892;5.738;2023-06-22T05:53:25;21.10;99.40
61392;DHT22;47261;52.892;5.738;2023-06-22T05:55:51;21.40;98.70
61392;DHT22;47261;52.892;5.738;2023-06-22T05:58:16;21.60;98.20
61392;DHT22;47261;52.892;5.738;2023-06-22T06:00:42;21.90;97.90
61392;DHT22;47261;52.892;5.738;2023-06-22T06:03:09;22.10;97.60
61392;DHT22;47261;52.892;5.738;2023-06-22T06:05:36;22.30;97.20
61392;DHT22;47261;52.892;5.738;2023-06-22T06:08:03;22.40;96.80
61392;DHT22;47261;52.892;5.738;2023-06-22T06:10:30;22.60;96.70
61392;DHT22;47261;52.892;5.738;2023-06-22T06:12:56;22.80;96.50
61392;DHT22;47261;52.892;5.738;2023-06-22T06:15:22;23.10;96.10
61392;DHT22;47261;52.892;5.738;2023-06-22T06:17:49;23.40;95.60
61392;DHT22;47261;52.892;5.738;2023-06-22T06:20:17;23.50;95.20
61392;DHT22;47261;52.892;5.738;2023-06-22T06:22:43;23.60;94.90
61392;DHT22;47261;52.892;5.738;2023-06-22T06:25:09;23.50;94.80
61392;DHT22;47261;52.892;5.738;2023-06-22T06:27:35;23.40;94.80
61392;DHT22;47261;52.892;5.738;2023-06-22T06:30:01;23.20;94.90
61392;DHT22;47261;52.892;5.738;2023-06-22T06:32:27;23.00;95.10
61392;DHT22;47261;52.892;5.738;2023-06-22T06:34:52;22.80;95.30
61392;DHT22;47261;52.892;5.738;2023-06-22T06:37:18;22.70;95.50
61392;DHT22;47261;52.892;5.738;2023-06-22T06:39:44;22.60;95.70
61392;DHT22;47261;52.892;5.738;2023-06-22T06:42:10;22.50;95.90
61392;DHT22;47261;52.892;5.738;2023-06-22T06:44:36;22.40;96.20
61392;DHT22;47261;52.892;5.738;2023-06-22T06:47:04;22.30;96.30
61392;DHT22;47261;52.892;5.738;2023-06-22T06:49:29;22.30;96.40
61392;DHT22;47261;52.892;5.738;2023-06-22T06:51:55;22.30;96.30
61392;DHT22;47261;52.892;5.738;2023-06-22T06:54:21;22.20;96.30
61392;DHT22;47261;52.892;5.738;2023-06-22T06:56:47;22.20;96.30
61392;DHT22;47261;52.892;5.738;2023-06-22T06:59:14;22.20;96.30
61392;DHT22;47261;52.892;5.738;2023-06-22T07:01:41;22.20;96.20
61392;DHT22;47261;52.892;5.738;2023-06-22T07:04:07;22.20;96.10
61392;DHT22;47261;52.892;5.738;2023-06-22T07:06:32;22.20;96.20
61392;DHT22;47261;52.892;5.738;2023-06-22T07:08:59;22.20;96.20
61392;DHT22;47261;52.892;5.738;2023-06-22T07:11:25;22.20;96.10
61392;DHT22;47261;52.892;5.738;2023-06-22T07:13:51;22.20;96.00
61392;DHT22;47261;52.892;5.738;2023-06-22T07:16:16;22.20;95.90
61392;DHT22;47261;52.892;5.738;2023-06-22T07:18:42;22.10;95.80
61392;DHT22;47261;52.892;5.738;2023-06-22T07:21:08;22.10;95.70
61392;DHT22;47261;52.892;5.738;2023-06-22T07:23:34;22.10;95.70
61392;DHT22;47261;52.892;5.738;2023-06-22T07:26:00;22.20;95.70
61392;DHT22;47261;52.892;5.738;2023-06-22T07:28:27;22.30;95.70
61392;DHT22;47261;52.892;5.738;2023-06-22T07:30:53;22.40;95.60
61392;DHT22;47261;52.892;5.738;2023-06-22T07:33:19;22.40;95.50
61392;DHT22;47261;52.892;5.738;2023-06-22T07:35:45;22.60;95.40
61392;DHT22;47261;52.892;5.738;2023-06-22T07:38:12;22.70;95.10
61392;DHT22;47261;52.892;5.738;2023-06-22T07:40:38;22.80;94.90
61392;DHT22;47261;52.892;5.738;2023-06-22T07:43:03;22.90;94.70
61392;DHT22;47261;52.892;5.738;2023-06-22T07:45:29;23.00;94.60
61392;DHT22;47261;52.892;5.738;2023-06-22T07:47:55;23.00;94.50
61392;DHT22;47261;52.892;5.738;2023-06-22T07:50:21;23.00;94.70
61392;DHT22;47261;52.892;5.738;2023-06-22T07:52:46;23.10;94.70
61392;DHT22;47261;52.892;5.738;2023-06-22T07:55:13;23.20;94.40
61392;DHT22;47261;52.892;5.738;2023-06-22T07:57:39;23.30;94.30
61392;DHT22;47261;52.892;5.738;2023-06-22T08:00:06;23.50;94.20
61392;DHT22;47261;52.892;5.738;2023-06-22T08:02:42;23.60;94.00
61392;DHT22;47261;52.892;5.738;2023-06-22T08:05:09;23.80;93.90
61392;DHT22;47261;52.892;5.738;2023-06-22T08:07:35;23.90;93.60
61392;DHT22;47261;52.892;5.738;2023-06-22T08:10:03;24.00;93.50
61392;DHT22;47261;52.892;5.738;2023-06-22T08:12:29;24.10;93.20
61392;DHT22;47261;52.892;5.738;2023-06-22T08:14:55;24.20;93.00
61392;DHT22;47261;52.892;5.738;2023-06-22T08:17:23;24.20;92.80
61392;DHT22;47261;52.892;5.738;2023-06-22T08:19:48;24.20;92.70
61392;DHT22;47261;52.892;5.738;2023-06-22T08:22:15;24.20;92.70
61392;DHT22;47261;52.892;5.738;2023-06-22T08:24:40;24.30;92.80
61392;DHT22;47261;52.892;5.738;2023-06-22T08:27:10;24.30;92.60
61392;DHT22;47261;52.892;5.738;2023-06-22T08:29:37;24.30;92.40
61392;DHT22;47261;52.892;5.738;2023-06-22T08:32:03;24.30;92.40
61392;DHT22;47261;52.892;5.738;2023-06-22T08:34:29;24.30;92.50
61392;DHT22;47261;52.892;5.738;2023-06-22T08:36:54;24.30;92.40
61392;DHT22;47261;52.892;5.738;2023-06-22T08:39:20;24.30;92.30
61392;DHT22;47261;52.892;5.738;2023-06-22T08:41:47;24.40;92.20
61392;DHT22;47261;52.892;5.738;2023-06-22T08:44:13;24.50;91.90
61392;DHT22;47261;52.892;5.738;2023-06-22T08:46:39;24.50;91.70
61392;DHT22;47261;52.892;5.738;2023-06-22T08:49:06;24.60;91.70
61392;DHT22;47261;52.892;5.738;2023-06-22T08:51:32;24.80;91.70
61392;DHT22;47261;52.892;5.738;2023-06-22T08:53:58;24.90;91.50
61392;DHT22;47261;52.892;5.738;2023-06-22T08:56:23;24.90;91.20
61392;DHT22;47261;52.892;5.738;2023-06-22T08:58:49;25.00;91.10
61392;DHT22;47261;52.892;5.738;2023-06-22T09:01:15;25.10;91.00
61392;DHT22;47261;52.892;5.738;2023-06-22T09:03:42;25.20;90.80
61392;DHT22;47261;52.892;5.738;2023-06-22T09:06:08;25.20;90.60
61392;DHT22;47261;52.892;5.738;2023-06-22T09:08:35;25.40;90.50
61392;DHT22;47261;52.892;5.738;2023-06-22T09:11:01;25.50;90.00
61392;DHT22;47261;52.892;5.738;2023-06-22T09:15:54;25.70;89.40
61392;DHT22;47261;52.892;5.738;2023-06-22T09:18:20;25.70;88.90
61392;DHT22;47261;52.892;5.738;2023-06-22T09:20:45;25.80;88.70
61392;DHT22;47261;52.892;5.738;2023-06-22T09:31:17;26.70;86.90
61392;DHT22;47261;52.892;5.738;2023-06-22T09:33:53;26.90;86.20
61392;DHT22;47261;52.892;5.738;2023-06-22T09:36:22;27.10;85.50
61392;DHT22;47261;52.892;5.738;2023-06-22T09:38:49;27.20;84.70
61392;DHT22;47261;52.892;5.738;2023-06-22T09:41:20;27.40;84.00
61392;DHT22;47261;52.892;5.738;2023-06-22T09:43:46;27.60;83.30
61392;DHT22;47261;52.892;5.738;2023-06-22T09:46:11;27.90;82.20
61392;DHT22;47261;52.892;5.738;2023-06-22T09:48:37;28.10;81.30
61392;DHT22;47261;52.892;5.738;2023-06-22T09:51:03;28.20;80.10
61392;DHT22;47261;52.892;5.738;2023-06-22T09:53:28;28.50;79.60
61392;DHT22;47261;52.892;5.738;2023-06-22T09:55:54;28.60;78.40
61392;DHT22;47261;52.892;5.738;2023-06-22T09:58:20;28.60;78.10
61392;DHT22;47261;52.892;5.738;2023-06-22T10:00:46;28.80;77.10
61392;DHT22;47261;52.892;5.738;2023-06-22T10:03:11;28.90;77.20
61392;DHT22;47261;52.892;5.738;2023-06-22T10:05:37;29.10;75.60
61392;DHT22;47261;52.892;5.738;2023-06-22T10:08:03;29.10;74.60
61392;DHT22;47261;52.892;5.738;2023-06-22T10:10:28;29.20;73.80
61392;DHT22;47261;52.892;5.738;2023-06-22T10:12:56;29.40;73.10
61392;DHT22;47261;52.892;5.738;2023-06-22T10:15:23;29.50;72.10
61392;DHT22;47261;52.892;5.738;2023-06-22T10:17:48;29.70;70.90
61392;DHT22;47261;52.892;5.738;2023-06-22T10:20:15;29.70;69.60
61392;DHT22;47261;52.892;5.738;2023-06-22T10:22:42;29.80;68.80
61392;DHT22;47261;52.892;5.738;2023-06-22T10:25:09;29.90;68.70
61392;DHT22;47261;52.892;5.738;2023-06-22T10:27:35;29.90;68.10
61392;DHT22;47261;52.892;5.738;2023-06-22T10:30:01;29.90;67.80
61392;DHT22;47261;52.892;5.738;2023-06-22T10:32:27;29.80;67.80
61392;DHT22;47261;52.892;5.738;2023-06-22T10:34:54;29.80;67.50
61392;DHT22;47261;52.892;5.738;2023-06-22T10:37:20;29.90;67.20
61392;DHT22;47261;52.892;5.738;2023-06-22T10:39:45;29.90;66.50
61392;DHT22;47261;52.892;5.738;2023-06-22T10:42:12;29.90;65.40
61392;DHT22;47261;52.892;5.738;2023-06-22T10:44:38;29.90;64.10
61392;DHT22;47261;52.892;5.738;2023-06-22T10:47:06;29.90;64.50
61392;DHT22;47261;52.892;5.738;2023-06-22T10:49:32;30.00;63.90
61392;DHT22;47261;52.892;5.738;2023-06-22T10:51:57;30.00;64.00
61392;DHT22;47261;52.892;5.738;2023-06-22T10:54:23;30.10;64.10
61392;DHT22;47261;52.892;5.738;2023-06-22T10:56:48;30.30;63.50
61392;DHT22;47261;52.892;5.738;2023-06-22T10:59:14;30.30;62.40
61392;DHT22;47261;52.892;5.738;2023-06-22T11:01:40;30.10;62.60
61392;DHT22;47261;52.892;5.738;2023-06-22T11:04:06;30.10;62.30
61392;DHT22;47261;52.892;5.738;2023-06-22T11:06:32;30.10;61.60
61392;DHT22;47261;52.892;5.738;2023-06-22T11:08:57;30.00;62.00
61392;DHT22;47261;52.892;5.738;2023-06-22T11:11:25;29.90;62.10
61392;DHT22;47261;52.892;5.738;2023-06-22T11:13:50;29.90;61.30
61392;DHT22;47261;52.892;5.738;2023-06-22T11:16:16;29.80;61.10
61392;DHT22;47261;52.892;5.738;2023-06-22T11:18:42;29.70;61.40
61392;DHT22;47261;52.892;5.738;2023-06-22T11:21:07;29.70;61.40
61392;DHT22;47261;52.892;5.738;2023-06-22T11:23:33;29.60;60.80
61392;DHT22;47261;52.892;5.738;2023-06-22T11:25:58;29.60;60.50
61392;DHT22;47261;52.892;5.738;2023-06-22T11:28:24;29.50;60.50
61392;DHT22;47261;52.892;5.738;2023-06-22T11:30:50;29.40;61.00
61392;DHT22;47261;52.892;5.738;2023-06-22T11:33:15;29.20;61.40
61392;DHT22;47261;52.892;5.738;2023-06-22T11:35:41;29.10;61.90
61392;DHT22;47261;52.892;5.738;2023-06-22T11:38:06;29.00;62.20
61392;DHT22;47261;52.892;5.738;2023-06-22T11:40:33;28.90;62.10
61392;DHT22;47261;52.892;5.738;2023-06-22T11:42:58;28.80;62.30
61392;DHT22;47261;52.892;5.738;2023-06-22T11:45:24;28.70;62.10
61392;DHT22;47261;52.892;5.738;2023-06-22T11:47:50;28.80;62.30
61392;DHT22;47261;52.892;5.738;2023-06-22T11:50:15;28.80;62.40
61392;DHT22;47261;52.892;5.738;2023-06-22T11:52:41;28.90;62.50
61392;DHT22;47261;52.892;5.738;2023-06-22T11:55:07;28.80;61.90
61392;DHT22;47261;52.892;5.738;2023-06-22T11:57:35;28.80;62.10
61392;DHT22;47261;52.892;5.738;2023-06-22T12:00:01;28.80;62.40
61392;DHT22;47261;52.892;5.738;2023-06-22T12:02:27;28.80;62.80
61392;DHT22;47261;52.892;5.738;2023-06-22T12:04:52;28.70;62.80
61392;DHT22;47261;52.892;5.738;2023-06-22T12:07:20;28.70;63.10
61392;DHT22;47261;52.892;5.738;2023-06-22T12:09:46;28.70;63.40
61392;DHT22;47261;52.892;5.738;2023-06-22T12:12:12;28.70;62.60
61392;DHT22;47261;52.892;5.738;2023-06-22T12:14:37;28.70;62.50
61392;DHT22;47261;52.892;5.738;2023-06-22T12:17:03;28.70;62.30
61392;DHT22;47261;52.892;5.738;2023-06-22T12:19:29;28.60;62.40
61392;DHT22;47261;52.892;5.738;2023-06-22T12:21:54;28.50;63.20
61392;DHT22;47261;52.892;5.738;2023-06-22T12:24:20;28.60;63.30
61392;DHT22;47261;52.892;5.738;2023-06-22T12:26:45;28.50;62.80
61392;DHT22;47261;52.892;5.738;2023-06-22T12:29:11;28.50;63.00
61392;DHT22;47261;52.892;5.738;2023-06-22T12:31:37;28.40;62.50
61392;DHT22;47261;52.892;5.738;2023-06-22T12:34:05;28.30;62.40
61392;DHT22;47261;52.892;5.738;2023-06-22T12:36:30;28.20;62.80
61392;DHT22;47261;52.892;5.738;2023-06-22T12:38:56;28.20;63.20
61392;DHT22;47261;52.892;5.738;2023-06-22T12:41:22;28.10;63.50
61392;DHT22;47261;52.892;5.738;2023-06-22T12:43:47;28.10;63.70
61392;DHT22;47261;52.892;5.738;2023-06-22T12:46:13;28.20;64.20
61392;DHT22;47261;52.892;5.738;2023-06-22T12:48:38;28.20;64.20
61392;DHT22;47261;52.892;5.738;2023-06-22T12:51:08;28.20;63.80
61392;DHT22;47261;52.892;5.738;2023-06-22T12:53:35;28.20;64.00
61392;DHT22;47261;52.892;5.738;2023-06-22T12:56:00;28.20;63.50
61392;DHT22;47261;52.892;5.738;2023-06-22T12:58:26;28.20;63.40
61392;DHT22;47261;52.892;5.738;2023-06-22T13:00:52;28.10;63.80
61392;DHT22;47261;52.892;5.738;2023-06-22T13:03:17;28.10;63.70
61392;DHT22;47261;52.892;5.738;2023-06-22T13:05:43;28.10;63.80
61392;DHT22;47261;52.892;5.738;2023-06-22T13:08:08;28.00;64.10
61392;DHT22;47261;52.892;5.738;2023-06-22T13:10:34;28.00;64.20
61392;DHT22;47261;52.892;5.738;2023-06-22T13:13:00;28.00;64.30
61392;DHT22;47261;52.892;5.738;2023-06-22T13:15:27;27.90;63.80
61392;DHT22;47261;52.892;5.738;2023-06-22T13:17:54;27.90;64.30
61392;DHT22;47261;52.892;5.738;2023-06-22T13:20:19;27.80;64.40
61392;DHT22;47261;52.892;5.738;2023-06-22T13:22:45;27.70;64.40
61392;DHT22;47261;52.892;5.738;2023-06-22T13:25:11;27.60;64.40
61392;DHT22;47261;52.892;5.738;2023-06-22T13:27:41;27.50;64.90
61392;DHT22;47261;52.892;5.738;2023-06-22T13:30:08;27.40;64.80
61392;DHT22;47261;52.892;5.738;2023-06-22T13:32:34;27.40;64.70
61392;DHT22;47261;52.892;5.738;2023-06-22T13:34:59;27.30;64.60
61392;DHT22;47261;52.892;5.738;2023-06-22T13:37:25;27.30;65.00
61392;DHT22;47261;52.892;5.738;2023-06-22T13:39:51;27.20;65.30
61392;DHT22;47261;52.892;5.738;2023-06-22T13:42:17;27.10;65.70
61392;DHT22;47261;52.892;5.738;2023-06-22T13:44:43;27.10;65.80
61392;DHT22;47261;52.892;5.738;2023-06-22T13:47:09;27.00;66.30
61392;DHT22;47261;52.892;5.738;2023-06-22T13:49:34;26.90;66.50
61392;DHT22;47261;52.892;5.738;2023-06-22T13:52:00;26.80;67.80
61392;DHT22;47261;52.892;5.738;2023-06-22T13:54:26;26.70;68.60
61392;DHT22;47261;52.892;5.738;2023-06-22T13:56:51;26.60;68.80
61392;DHT22;47261;52.892;5.738;2023-06-22T13:59:17;26.40;69.50
61392;DHT22;47261;52.892;5.738;2023-06-22T14:01:43;26.30;70.50
61392;DHT22;47261;52.892;5.738;2023-06-22T14:04:09;26.20;70.50
61392;DHT22;47261;52.892;5.738;2023-06-22T14:06:35;26.00;70.90
61392;DHT22;47261;52.892;5.738;2023-06-22T14:09:00;25.90;71.30
61392;DHT22;47261;52.892;5.738;2023-06-22T14:11:26;25.80;71.80
61392;DHT22;47261;52.892;5.738;2023-06-22T14:13:52;25.80;71.80
61392;DHT22;47261;52.892;5.738;2023-06-22T14:16:18;25.70;71.90
61392;DHT22;47261;52.892;5.738;2023-06-22T14:18:45;25.70;72.10
61392;DHT22;47261;52.892;5.738;2023-06-22T14:21:10;25.60;71.90
61392;DHT22;47261;52.892;5.738;2023-06-22T14:23:36;25.60;72.10
61392;DHT22;47261;52.892;5.738;2023-06-22T14:26:03;25.50;72.00
61392;DHT22;47261;52.892;5.738;2023-06-22T14:28:29;25.50;72.40
61392;DHT22;47261;52.892;5.738;2023-06-22T14:30:54;25.40;72.40
61392;DHT22;47261;52.892;5.738;2023-06-22T14:33:21;25.40;72.30
61392;DHT22;47261;52.892;5.738;2023-06-22T14:35:47;25.40;72.40
61392;DHT22;47261;52.892;5.738;2023-06-22T14:38:13;25.40;72.10
61392;DHT22;47261;52.892;5.738;2023-06-22T14:40:38;25.30;72.20
61392;DHT22;47261;52.892;5.738;2023-06-22T14:43:04;25.30;72.30
61392;DHT22;47261;52.892;5.738;2023-06-22T14:45:30;25.30;72.40
61392;DHT22;47261;52.892;5.738;2023-06-22T14:47:55;25.20;72.20
61392;DHT22;47261;52.892;5.738;2023-06-22T14:50:21;25.20;72.10
61392;DHT22;47261;52.892;5.738;2023-06-22T14:52:46;25.10;71.80
61392;DHT22;47261;52.892;5.738;2023-06-22T14:55:12;25.00;71.50
61392;DHT22;47261;52.892;5.738;2023-06-22T14:57:38;24.90;71.50
61392;DHT22;47261;52.892;5.738;2023-06-22T15:00:04;24.80;71.70
61392;DHT22;47261;52.892;5.738;2023-06-22T15:02:31;24.70;72.00
61392;DHT22;47261;52.892;5.738;2023-06-22T15:04:57;24.70;71.90
61392;DHT22;47261;52.892;5.738;2023-06-22T15:07:23;24.60;72.10
61392;DHT22;47261;52.892;5.738;2023-06-22T15:09:48;24.60;72.50
61392;DHT22;47261;52.892;5.738;2023-06-22T15:12:14;24.60;73.00
61392;DHT22;47261;52.892;5.738;2023-06-22T15:14:43;24.50;72.80
61392;DHT22;47261;52.892;5.738;2023-06-22T15:17:09;24.50;72.80
61392;DHT22;47261;52.892;5.738;2023-06-22T15:19:38;24.50;73.30
61392;DHT22;47261;52.892;5.738;2023-06-22T15:22:05;24.50;73.30
61392;DHT22;47261;52.892;5.738;2023-06-22T15:24:32;24.40;72.40
61392;DHT22;47261;52.892;5.738;2023-06-22T15:26:58;24.40;72.10
61392;DHT22;47261;52.892;5.738;2023-06-22T15:29:23;24.30;71.50
61392;DHT22;47261;52.892;5.738;2023-06-22T15:31:49;24.20;71.30
61392;DHT22;47261;52.892;5.738;2023-06-22T15:34:15;24.10;71.10
61392;DHT22;47261;52.892;5.738;2023-06-22T15:36:41;24.00;70.60
61392;DHT22;47261;52.892;5.738;2023-06-22T15:39:06;23.90;70.50
61392;DHT22;47261;52.892;5.738;2023-06-22T15:41:32;23.80;70.90
61392;DHT22;47261;52.892;5.738;2023-06-22T15:43:58;23.70;71.30